Aviation Digital Data Service (ADDS)

Output produced by METARs form (2337 UTC 23 May 2022)
found at http://www.aviationweather.gov/metar/data/
 
HBBA 231800Z 00000KT 9999 FEW03023/21 Q1012 NOSIG
TAF HBBA 231700Z 2318/2424 36004KT 9999 FEW030 BKN100 
     BECMG 2403/2405 VRB03KT 9999 FEW025 SCT100 
     BECMG 2408/2410 18012G22KT 9999 SCT090 
     PROB30 
     TEMPO 2412/2418 09015G26KT 8000 TSRA FEW025CB BKN100 
     BECMG 2419/2421 00000KT CAVOK